Time;durP1;ratioP1;P1;durP2;ratioP2;P2;SDS_P1;SDS_P2;PMS_P1;PMS_P2;Temp;Humidity;BMP_temperature;BMP_pressure;BME280_temperature;BME280_humidity;BME280_pressure;Samples;Min_cycle;Max_cycle;Signal;HPM_P1;HPM_P2
2023/07/21 00:01:01;;;;;;;0.90;0.90;;;;;16.70;95670.00;;;;5075644;28;20554;-54
2023/07/21 00:03:30;;;;;;;0.70;0.70;;;;;16.60;95676.00;;;;5075891;28;20192;-54
2023/07/21 00:05:57;;;;;;;0.60;0.60;;;;;16.40;95663.00;;;;5075619;28;20226;-55
2023/07/21 00:08:28;;;;;;;1.00;1.00;;;;;16.30;95668.00;;;;5075462;28;20270;-55
2023/07/21 00:10:57;;;;;;;0.57;0.57;;;;;16.40;95664.00;;;;5075446;28;20179;-54
2023/07/21 00:13:24;;;;;;;0.70;0.70;;;;;16.40;95660.00;;;;5075410;28;20191;-55
2023/07/21 00:15:52;;;;;;;0.50;0.50;;;;;16.30;95656.00;;;;5075670;28;20249;-55
2023/07/21 00:18:20;;;;;;;0.80;0.80;;;;;16.30;95650.00;;;;5075226;28;20223;-55
2023/07/21 00:20:50;;;;;;;0.40;0.40;;;;;16.40;95658.00;;;;5075884;28;20192;-55
2023/07/21 00:23:19;;;;;;;10.77;1.50;;;;;16.40;95650.00;;;;5075593;28;20733;-55
2023/07/21 00:25:46;;;;;;;1.63;1.53;;;;;16.40;95654.00;;;;5075276;28;20531;-55
2023/07/21 00:28:14;;;;;;;0.70;0.70;;;;;16.40;95658.00;;;;5075023;28;20247;-55
2023/07/21 00:30:42;;;;;;;1.07;1.07;;;;;16.40;95653.00;;;;5075712;28;20231;-55
2023/07/21 00:33:09;;;;;;;0.70;0.70;;;;;16.30;95649.00;;;;5073454;28;20662;-54
2023/07/21 00:35:36;;;;;;;0.60;0.60;;;;;16.30;95642.00;;;;5075030;28;20535;-54
2023/07/21 00:38:05;;;;;;;0.83;0.83;;;;;16.20;95646.00;;;;5075045;28;20283;-58
2023/07/21 00:40:35;;;;;;;0.60;0.60;;;;;16.30;95649.00;;;;5075148;28;20201;-54
2023/07/21 00:43:03;;;;;;;0.80;0.80;;;;;16.20;95649.00;;;;5075182;28;20601;-54
2023/07/21 00:45:37;;;;;;;0.50;0.50;;;;;16.20;95639.00;;;;5075395;28;20252;-54
2023/07/21 00:48:07;;;;;;;1.13;1.13;;;;;16.30;95637.00;;;;5074736;28;20649;-55
2023/07/21 00:50:38;;;;;;;0.93;0.93;;;;;16.40;95642.00;;;;5075313;28;20231;-54
2023/07/21 00:53:08;;;;;;;9.07;0.80;;;;;16.50;95639.00;;;;5074936;28;20563;-54
2023/07/21 00:55:38;;;;;;;1.37;1.27;;;;;16.50;95637.00;;;;5074616;28;20202;-55
2023/07/21 00:58:07;;;;;;;0.50;0.50;;;;;16.50;95637.00;;;;5074429;28;20245;-55
2023/07/21 01:00:35;;;;;;;0.60;0.60;;;;;16.40;95638.00;;;;5074531;28;20191;-54
2023/07/21 01:03:03;;;;;;;0.60;0.60;;;;;16.50;95634.00;;;;5075554;28;20203;-55
2023/07/21 01:05:33;;;;;;;0.60;0.60;;;;;16.40;95625.00;;;;5074679;28;20237;-54
2023/07/21 01:08:04;;;;;;;0.50;0.50;;;;;16.40;95628.00;;;;5074325;28;20727;-54
2023/07/21 01:10:34;;;;;;;0.80;0.80;;;;;16.40;95631.00;;;;5074353;28;20180;-55
2023/07/21 01:13:02;;;;;;;1.33;1.23;;;;;16.30;95619.00;;;;5074262;28;20643;-54
2023/07/21 01:15:31;;;;;;;0.83;0.83;;;;;16.10;95625.00;;;;5074406;28;20261;-55
2023/07/21 01:17:59;;;;;;;0.63;0.63;;;;;16.00;95615.00;;;;5074363;28;20658;-56
2023/07/21 01:20:28;;;;;;;0.57;0.57;;;;;16.10;95613.00;;;;5074666;28;20192;-54
2023/07/21 01:23:02;;;;;;;0.60;0.60;;;;;16.10;95614.00;;;;5073988;28;20745;-55
2023/07/21 01:25:33;;;;;;;0.60;0.60;;;;;16.10;95616.00;;;;5074007;28;20205;-54
2023/07/21 01:28:03;;;;;;;0.40;0.40;;;;;16.20;95608.00;;;;5074272;28;20183;-58
2023/07/21 01:30:31;;;;;;;0.60;0.60;;;;;16.10;95613.00;;;;5074432;28;20184;-54
2023/07/21 01:33:00;;;;;;;0.50;0.50;;;;;16.00;95606.00;;;;5073882;28;20312;-54
2023/07/21 01:35:30;;;;;;;0.60;0.60;;;;;16.00;95608.00;;;;5072876;28;20195;-54
2023/07/21 01:37:59;;;;;;;0.40;0.40;;;;;16.00;95596.00;;;;5073677;28;20296;-54
2023/07/21 01:40:26;;;;;;;1.10;1.10;;;;;16.00;95597.00;;;;5073584;28;20211;-55
2023/07/21 01:42:56;;;;;;;0.80;0.80;;;;;16.00;95595.00;;;;5073614;28;20566;-54
2023/07/21 01:45:24;;;;;;;0.80;0.80;;;;;16.00;95590.00;;;;5073309;28;20199;-54
2023/07/21 01:47:51;;;;;;;0.73;0.73;;;;;15.90;95584.00;;;;5073488;28;20585;-54
2023/07/21 01:50:20;;;;;;;0.77;0.77;;;;;16.00;95583.00;;;;5073622;28;20666;-54
2023/07/21 01:52:48;;;;;;;0.73;0.73;;;;;15.90;95589.00;;;;5073984;28;20662;-54
2023/07/21 01:55:20;;;;;;;0.83;0.83;;;;;15.70;95593.00;;;;5073582;28;20207;-54
2023/07/21 01:57:53;;;;;;;1.07;0.97;;;;;15.50;95590.00;;;;5074142;28;20188;-54
2023/07/21 02:00:25;;;;;;;0.47;0.47;;;;;15.40;95583.00;;;;5073547;28;20203;-54
2023/07/21 02:02:53;;;;;;;0.57;0.57;;;;;15.50;95583.00;;;;5073645;28;20182;-54
2023/07/21 02:05:22;;;;;;;0.43;0.43;;;;;15.50;95583.00;;;;5073819;28;20199;-55
2023/07/21 02:07:49;;;;;;;1.13;0.87;;;;;15.40;95593.00;;;;5073298;28;20188;-55
2023/07/21 02:10:17;;;;;;;0.83;0.83;;;;;15.50;95585.00;;;;5073742;28;20651;-54
2023/07/21 02:12:45;;;;;;;0.60;0.60;;;;;15.40;95574.00;;;;5073429;28;20651;-54
2023/07/21 02:15:13;;;;;;;0.50;0.50;;;;;15.40;95584.00;;;;5073591;28;20195;-54
2023/07/21 02:17:42;;;;;;;0.60;0.60;;;;;15.50;95591.00;;;;5073185;28;20195;-54
2023/07/21 02:20:10;;;;;;;0.90;0.90;;;;;15.70;95593.00;;;;5072900;28;20686;-56
2023/07/21 02:22:40;;;;;;;0.60;0.60;;;;;15.70;95601.00;;;;5073248;28;20202;-54
2023/07/21 02:25:09;;;;;;;2.93;0.70;;;;;15.70;95594.00;;;;5072440;28;20227;-54
2023/07/21 02:27:36;;;;;;;0.70;0.70;;;;;15.60;95590.00;;;;5073013;28;20251;-54
2023/07/21 02:30:06;;;;;;;0.70;0.70;;;;;15.70;95579.00;;;;5072699;28;20214;-54
2023/07/21 02:32:33;;;;;;;0.90;0.90;;;;;15.70;95571.00;;;;5072870;28;20642;-54
2023/07/21 02:35:05;;;;;;;0.70;0.70;;;;;15.60;95575.00;;;;5072897;28;20195;-59
2023/07/21 02:37:32;;;;;;;1.13;1.13;;;;;15.50;95579.00;;;;5072849;28;20199;-54
2023/07/21 02:40:00;;;;;;;0.60;0.60;;;;;15.30;95565.00;;;;5072720;28;20230;-54
2023/07/21 02:42:28;;;;;;;0.87;0.87;;;;;15.40;95555.00;;;;5072725;28;20195;-55
2023/07/21 02:44:55;;;;;;;0.83;0.83;;;;;15.30;95576.00;;;;5071505;28;20199;-54
2023/07/21 02:47:22;;;;;;;0.57;0.57;;;;;15.20;95570.00;;;;5072871;28;20685;-54
2023/07/21 02:49:50;;;;;;;0.73;0.73;;;;;15.30;95573.00;;;;5072724;28;20299;-54
2023/07/21 02:52:19;;;;;;;0.73;0.70;;;;;15.30;95567.00;;;;5073051;28;20187;-54
2023/07/21 02:54:46;;;;;;;0.90;0.90;;;;;15.40;95564.00;;;;5072651;28;20218;-54
2023/07/21 02:57:13;;;;;;;0.70;0.70;;;;;15.30;95560.00;;;;5073135;28;20196;-54
2023/07/21 02:59:41;;;;;;;0.60;0.60;;;;;15.30;95561.00;;;;5075435;28;20697;-54
2023/07/21 03:02:10;;;;;;;2.47;0.73;;;;;15.00;95559.00;;;;5076595;28;20222;-54
2023/07/21 03:04:42;;;;;;;0.63;0.63;;;;;15.00;95553.00;;;;5077235;28;20211;-54
2023/07/21 03:07:11;;;;;;;0.50;0.50;;;;;15.10;95560.00;;;;5076700;28;20267;-53
2023/07/21 03:09:40;;;;;;;0.57;0.57;;;;;15.10;95553.00;;;;5076462;28;20230;-54
2023/07/21 03:12:08;;;;;;;0.60;0.60;;;;;15.00;95556.00;;;;5076575;28;20621;-55
2023/07/21 03:14:36;;;;;;;0.60;0.60;;;;;15.10;95553.00;;;;5076595;28;20195;-55
2023/07/21 03:17:03;;;;;;;0.70;0.70;;;;;15.00;95554.00;;;;5076461;28;20194;-55
2023/07/21 03:19:31;;;;;;;0.67;0.67;;;;;15.00;95559.00;;;;5076883;28;20298;-55
2023/07/21 03:22:00;;;;;;;0.70;0.70;;;;;15.10;95556.00;;;;5076618;28;20650;-55
2023/07/21 03:24:27;;;;;;;0.90;0.90;;;;;15.20;95554.00;;;;5076687;28;20202;-55
2023/07/21 03:26:56;;;;;;;0.70;0.70;;;;;15.10;95559.00;;;;5076253;28;20199;-54
2023/07/21 03:29:23;;;;;;;0.67;0.67;;;;;15.10;95557.00;;;;5076012;28;20226;-54
2023/07/21 03:31:51;;;;;;;0.70;0.70;;;;;15.10;95548.00;;;;5076098;28;20187;-54
2023/07/21 03:34:18;;;;;;;1.07;1.07;;;;;15.10;95548.00;;;;5076355;28;20674;-54
2023/07/21 03:36:50;;;;;;;0.60;0.60;;;;;15.10;95545.00;;;;5076260;28;20271;-54
2023/07/21 03:39:18;;;;;;;1.03;1.03;;;;;15.10;95541.00;;;;5075839;28;20234;-54
2023/07/21 03:41:45;;;;;;;0.77;0.73;;;;;15.00;95540.00;;;;5075906;28;20215;-55
2023/07/21 03:44:14;;;;;;;0.50;0.50;;;;;14.90;95545.00;;;;5075876;28;20195;-54
2023/07/21 03:46:41;;;;;;;0.70;0.70;;;;;14.70;95529.00;;;;5075781;28;20728;-55
2023/07/21 03:49:11;;;;;;;2.63;0.60;;;;;14.50;95560.00;;;;5075684;28;20226;-54
2023/07/21 03:51:40;;;;;;;0.60;0.60;;;;;14.50;95552.00;;;;5075958;28;20245;-54
2023/07/21 03:54:07;;;;;;;0.70;0.70;;;;;14.60;95545.00;;;;5075674;28;20196;-55
2023/07/21 03:56:34;;;;;;;0.40;0.40;;;;;14.60;95545.00;;;;5075650;28;20601;-54
2023/07/21 03:59:02;;;;;;;0.90;0.90;;;;;14.70;95540.00;;;;5075794;28;20616;-54
2023/07/21 04:01:30;;;;;;;0.63;0.63;;;;;14.70;95539.00;;;;5075594;28;20254;-54
2023/07/21 04:03:58;;;;;;;0.77;0.77;;;;;14.70;95535.00;;;;5075515;28;20195;-54
2023/07/21 04:06:25;;;;;;;0.60;0.60;;;;;14.60;95539.00;;;;5075728;28;20544;-54
2023/07/21 04:08:53;;;;;;;0.60;0.60;;;;;14.50;95532.00;;;;5074808;28;20722;-54
2023/07/21 04:11:21;;;;;;;0.50;0.50;;;;;14.50;95546.00;;;;5075430;28;20553;-54
2023/07/21 04:13:48;;;;;;;0.70;0.70;;;;;14.50;95549.00;;;;5075644;28;20712;-54
2023/07/21 04:16:15;;;;;;;1.03;1.03;;;;;14.60;95540.00;;;;5075335;28;20195;-54
2023/07/21 04:18:44;;;;;;;0.63;0.63;;;;;14.80;95545.00;;;;5075160;28;20261;-54
2023/07/21 04:21:11;;;;;;;0.63;0.63;;;;;14.80;95547.00;;;;5075189;28;20686;-54
2023/07/21 04:23:39;;;;;;;0.70;0.70;;;;;15.00;95545.00;;;;5075164;28;20195;-56
2023/07/21 04:26:07;;;;;;;0.60;0.60;;;;;15.30;95542.00;;;;5075104;28;20233;-54
2023/07/21 04:28:34;;;;;;;0.77;0.77;;;;;15.40;95537.00;;;;5074949;28;20227;-55
2023/07/21 04:31:02;;;;;;;0.83;0.83;;;;;15.50;95544.00;;;;5075359;28;20550;-55
2023/07/21 04:33:29;;;;;;;9.93;0.97;;;;;15.40;95543.00;;;;5073757;28;20205;-55
2023/07/21 04:35:59;;;;;;;0.70;0.70;;;;;15.30;95542.00;;;;5074963;28;20202;-55
2023/07/21 04:38:26;;;;;;;0.70;0.70;;;;;15.30;95538.00;;;;5075115;28;20212;-55
2023/07/21 04:40:54;;;;;;;1.17;1.07;;;;;15.20;95549.00;;;;5074854;28;20219;-54
2023/07/21 04:43:21;;;;;;;0.70;0.70;;;;;15.00;95546.00;;;;5075130;28;20196;-54
2023/07/21 04:45:49;;;;;;;0.97;0.97;;;;;15.20;95539.00;;;;5075037;28;20562;-54
2023/07/21 04:48:16;;;;;;;0.90;0.90;;;;;15.40;95540.00;;;;5074851;28;20583;-54
2023/07/21 04:50:43;;;;;;;0.90;0.90;;;;;15.30;95553.00;;;;5074688;28;20723;-54
2023/07/21 04:53:12;;;;;;;0.80;0.80;;;;;15.30;95549.00;;;;5074165;28;20191;-54
2023/07/21 04:55:40;;;;;;;0.80;0.80;;;;;15.40;95546.00;;;;5073457;28;20207;-54
2023/07/21 04:58:08;;;;;;;0.70;0.70;;;;;15.50;95552.00;;;;5074572;28;20214;-54
2023/07/21 05:00:35;;;;;;;1.10;1.10;;;;;15.70;95546.00;;;;5075363;28;20306;-54
2023/07/21 05:03:03;;;;;;;0.73;0.73;;;;;15.70;95546.00;;;;5073158;28;20257;-54
2023/07/21 05:05:30;;;;;;;0.77;0.77;;;;;15.80;95556.00;;;;5074344;28;20704;-54
2023/07/21 05:07:59;;;;;;;0.50;0.50;;;;;15.70;95545.00;;;;5074302;28;20241;-54
2023/07/21 05:10:28;;;;;;;1.27;1.27;;;;;15.70;95551.00;;;;5074228;28;20199;-54
2023/07/21 05:12:56;;;;;;;1.37;1.23;;;;;15.70;95545.00;;;;5074917;28;20579;-54
2023/07/21 05:15:24;;;;;;;0.70;0.70;;;;;15.80;95547.00;;;;5074689;28;20286;-54
2023/07/21 05:17:52;;;;;;;1.70;0.70;;;;;16.00;95543.00;;;;5072678;28;20290;-54
2023/07/21 05:20:20;;;;;;;0.50;0.50;;;;;16.00;95544.00;;;;5073243;28;20215;-54
2023/07/21 05:22:47;;;;;;;0.80;0.80;;;;;16.10;95539.00;;;;5074038;28;20728;-54
2023/07/21 05:25:17;;;;;;;0.60;0.60;;;;;16.20;95538.00;;;;5074044;28;20195;-55
2023/07/21 05:27:48;;;;;;;0.67;0.67;;;;;16.20;95544.00;;;;5074196;28;20191;-54
2023/07/21 05:30:15;;;;;;;0.40;0.40;;;;;16.00;95539.00;;;;5073701;28;20191;-54
2023/07/21 05:32:43;;;;;;;0.70;0.70;;;;;15.90;95537.00;;;;5073809;28;20200;-54
2023/07/21 05:35:13;;;;;;;0.80;0.80;;;;;15.80;95541.00;;;;5074103;28;20539;-54
2023/07/21 05:37:41;;;;;;;0.50;0.50;;;;;15.70;95541.00;;;;5073858;28;20184;-54
2023/07/21 05:40:09;;;;;;;1.70;1.60;;;;;15.70;95537.00;;;;5073603;28;20227;-55
2023/07/21 05:42:37;;;;;;;0.70;0.70;;;;;15.90;95540.00;;;;5073609;28;20206;-55
2023/07/21 05:45:07;;;;;;;0.60;0.60;;;;;16.00;95533.00;;;;5074135;28;20191;-55
2023/07/21 05:47:34;;;;;;;0.70;0.70;;;;;16.20;95537.00;;;;5073906;28;20195;-55
2023/07/21 05:50:02;;;;;;;0.63;0.63;;;;;16.40;95531.00;;;;5073521;28;20219;-54
2023/07/21 05:52:29;;;;;;;0.70;0.70;;;;;16.50;95540.00;;;;5073438;28;20686;-54
2023/07/21 05:54:56;;;;;;;0.70;0.70;;;;;16.70;95537.00;;;;5073447;28;20727;-54
2023/07/21 05:57:24;;;;;;;0.50;0.50;;;;;16.80;95527.00;;;;5073382;28;20188;-54
2023/07/21 05:59:51;;;;;;;0.77;0.77;;;;;16.90;95518.00;;;;5073218;28;20219;-54
2023/07/21 06:02:20;;;;;;;1.20;1.17;;;;;17.00;95527.00;;;;5073258;28;20204;-55
2023/07/21 06:04:49;;;;;;;1.03;0.70;;;;;17.10;95529.00;;;;5073209;28;20195;-55
2023/07/21 06:07:17;;;;;;;0.80;0.80;;;;;17.20;95536.00;;;;5073386;28;20605;-55
2023/07/21 06:09:44;;;;;;;0.60;0.60;;;;;17.20;95537.00;;;;5073142;28;20756;-55
2023/07/21 06:12:11;;;;;;;0.63;0.63;;;;;17.10;95541.00;;;;5073082;28;20196;-56
2023/07/21 06:14:39;;;;;;;0.63;0.63;;;;;16.90;95537.00;;;;5073070;28;20214;-54
2023/07/21 06:17:07;;;;;;;0.50;0.50;;;;;17.00;95539.00;;;;5072988;28;20248;-54
2023/07/21 06:19:35;;;;;;;0.90;0.90;;;;;17.00;95541.00;;;;5073023;28;20215;-54
2023/07/21 06:22:03;;;;;;;1.87;1.07;;;;;17.20;95534.00;;;;5072942;28;20532;-55
2023/07/21 06:24:30;;;;;;;0.80;0.80;;;;;17.30;95543.00;;;;5073049;28;20195;-58
2023/07/21 06:26:58;;;;;;;18.60;0.90;;;;;17.40;95545.00;;;;5072976;28;20193;-55
2023/07/21 06:29:26;;;;;;;0.93;0.93;;;;;17.60;95537.00;;;;5072744;28;20304;-53
2023/07/21 06:31:54;;;;;;;1.10;1.03;;;;;17.60;95544.00;;;;5072777;28;20199;-54
2023/07/21 06:34:23;;;;;;;0.60;0.60;;;;;17.60;95544.00;;;;5073187;28;20198;-54
2023/07/21 06:36:52;;;;;;;0.73;0.73;;;;;17.40;95547.00;;;;5072793;28;20261;-53
2023/07/21 06:39:21;;;;;;;3.30;1.23;;;;;17.70;95550.00;;;;5072638;28;20293;-55
2023/07/21 06:41:48;;;;;;;0.60;0.60;;;;;18.00;95544.00;;;;5072714;28;20215;-54
2023/07/21 06:44:16;;;;;;;0.60;0.60;;;;;18.20;95534.00;;;;5072786;28;20203;-54
2023/07/21 06:46:45;;;;;;;0.60;0.60;;;;;18.40;95545.00;;;;5072806;28;20191;-54
2023/07/21 06:49:14;;;;;;;0.80;0.80;;;;;18.60;95545.00;;;;5072654;28;20223;-54
2023/07/21 06:51:42;;;;;;;0.50;0.50;;;;;18.70;95539.00;;;;5072896;28;20194;-55
2023/07/21 06:54:11;;;;;;;0.50;0.50;;;;;18.80;95546.00;;;;5071411;28;20302;-55
2023/07/21 06:56:38;;;;;;;0.70;0.70;;;;;18.90;95525.00;;;;5073141;28;20197;-55
2023/07/21 06:59:06;;;;;;;0.63;0.63;;;;;19.10;95552.00;;;;5072667;28;20207;-55
2023/07/21 07:01:33;;;;;;;0.70;0.70;;;;;19.40;95547.00;;;;5072540;28;20286;-55
2023/07/21 07:04:01;;;;;;;0.43;0.43;;;;;19.50;95546.00;;;;5072537;28;20191;-56
2023/07/21 07:06:28;;;;;;;0.60;0.60;;;;;19.60;95554.00;;;;5072650;28;20705;-55
2023/07/21 07:08:56;;;;;;;0.80;0.80;;;;;19.50;95544.00;;;;5072522;28;20211;-55
2023/07/21 07:11:25;;;;;;;0.60;0.60;;;;;19.70;95540.00;;;;5072588;28;20734;-55
2023/07/21 07:13:52;;;;;;;0.50;0.50;;;;;19.70;95542.00;;;;5068703;28;20203;-57
2023/07/21 07:16:20;;;;;;;0.73;0.73;;;;;19.80;95544.00;;;;5077611;28;20566;-55
2023/07/21 07:18:47;;;;;;;0.70;0.70;;;;;20.00;95547.00;;;;5069781;28;20223;-55
2023/07/21 07:21:15;;;;;;;0.83;0.83;;;;;20.10;95541.00;;;;5070591;28;20571;-55
2023/07/21 07:23:42;;;;;;;0.60;0.60;;;;;20.30;95547.00;;;;5071656;28;20552;-55
2023/07/21 07:26:09;;;;;;;0.40;0.40;;;;;20.40;95536.00;;;;5070492;28;20192;-53
2023/07/21 07:28:39;;;;;;;0.63;0.63;;;;;20.50;95538.00;;;;5070657;28;20231;-53
2023/07/21 07:31:07;;;;;;;0.40;0.40;;;;;20.60;95547.00;;;;5085431;28;20229;-53
2023/07/21 07:33:35;;;;;;;1.13;1.13;;;;;20.40;95557.00;;;;5090929;28;20195;-55
2023/07/21 07:36:02;;;;;;;1.03;0.83;;;;;20.60;95558.00;;;;5088621;28;20626;-54
2023/07/21 07:38:30;;;;;;;0.50;0.50;;;;;20.30;95545.00;;;;5090720;28;20225;-54
2023/07/21 07:41:03;;;;;;;0.60;0.60;;;;;20.40;95555.00;;;;5088827;28;20306;-53
2023/07/21 07:43:32;;;;;;;1.00;1.00;;;;;20.40;95557.00;;;;5091901;28;20222;-54
2023/07/21 07:46:01;;;;;;;0.60;0.60;;;;;20.30;95563.00;;;;5093953;28;20207;-53
2023/07/21 07:48:28;;;;;;;0.43;0.43;;;;;20.40;95572.00;;;;5094343;28;20222;-54
2023/07/21 07:50:56;;;;;;;0.40;0.40;;;;;20.70;95563.00;;;;5093601;28;20194;-53
2023/07/21 07:53:23;;;;;;;0.87;0.57;;;;;20.90;95556.00;;;;5087289;28;20199;-54
2023/07/21 07:55:51;;;;;;;0.77;0.77;;;;;20.90;95569.00;;;;5072322;28;20203;-54
2023/07/21 07:58:18;;;;;;;0.70;0.70;;;;;21.20;95567.00;;;;5086172;28;20272;-54
2023/07/21 08:00:47;;;;;;;0.40;0.40;;;;;21.30;95570.00;;;;5092461;28;20210;-54
2023/07/21 08:03:16;;;;;;;0.40;0.40;;;;;21.30;95564.00;;;;5093845;28;20203;-54
2023/07/21 08:05:44;;;;;;;0.40;0.40;;;;;21.60;95560.00;;;;5093780;28;20198;-54
2023/07/21 08:08:11;;;;;;;0.63;0.63;;;;;21.70;95569.00;;;;5093541;28;20260;-54
2023/07/21 08:10:39;;;;;;;0.52;0.52;;;;;21.60;95573.00;;;;5093664;28;20270;-54
2023/07/21 08:13:07;;;;;;;0.63;0.63;;;;;21.70;95571.00;;;;5094215;28;20515;-54
2023/07/21 08:15:34;;;;;;;0.53;0.53;;;;;21.60;95569.00;;;;5093182;28;20199;-54
2023/07/21 08:18:02;;;;;;;0.52;0.52;;;;;21.50;95576.00;;;;5080989;28;20195;-54
2023/07/21 08:20:31;;;;;;;0.47;0.47;;;;;21.50;95568.00;;;;5071527;28;20207;-54
2023/07/21 08:22:59;;;;;;;0.60;0.60;;;;;21.80;95575.00;;;;5073405;28;20210;-54
2023/07/21 08:25:26;;;;;;;0.60;0.60;;;;;21.60;95570.00;;;;5071030;28;20211;-54
2023/07/21 08:27:54;;;;;;;0.60;0.60;;;;;21.50;95578.00;;;;5073511;28;20214;-53
2023/07/21 08:30:21;;;;;;;0.60;0.60;;;;;21.20;95579.00;;;;5072551;28;20578;-54
2023/07/21 08:32:49;;;;;;;0.40;0.40;;;;;21.00;95582.00;;;;5071685;28;20207;-54
2023/07/21 08:35:16;;;;;;;0.90;0.90;;;;;20.80;95578.00;;;;5072680;28;20199;-54
2023/07/21 08:37:45;;;;;;;0.70;0.70;;;;;20.90;95575.00;;;;5073358;28;20203;-54
2023/07/21 08:40:13;;;;;;;0.70;0.70;;;;;21.10;95585.00;;;;5072518;28;20226;-54
2023/07/21 08:42:41;;;;;;;0.53;0.53;;;;;21.20;95579.00;;;;5073175;28;20215;-55
2023/07/21 08:45:11;;;;;;;0.50;0.50;;;;;21.40;95582.00;;;;5072476;28;20274;-54
2023/07/21 08:47:39;;;;;;;0.60;0.60;;;;;21.40;95577.00;;;;5073280;28;20286;-57
2023/07/21 08:50:07;;;;;;;0.70;0.70;;;;;21.40;95576.00;;;;5072386;28;20265;-54
2023/07/21 08:52:35;;;;;;;0.70;0.70;;;;;21.60;95568.00;;;;5073116;28;20214;-55
2023/07/21 08:55:04;;;;;;;0.40;0.40;;;;;22.00;95564.00;;;;5072225;28;20199;-55
2023/07/21 08:57:32;;;;;;;0.50;0.50;;;;;22.00;95578.00;;;;5071714;28;20210;-54
2023/07/21 08:59:59;;;;;;;0.70;0.70;;;;;21.90;95588.00;;;;5070836;28;20705;-54
2023/07/21 09:02:41;;;;;;;0.52;0.52;;;;;22.00;95579.00;;;;5072845;28;20226;-54
2023/07/21 09:05:15;;;;;;;0.40;0.40;;;;;22.10;95585.00;;;;5072070;28;20199;-54
2023/07/21 09:07:44;;;;;;;0.95;0.80;;;;;22.00;95581.00;;;;5072911;28;20188;-54
2023/07/21 09:10:13;;;;;;;0.60;0.60;;;;;22.20;95586.00;;;;5079277;28;20222;-54
2023/07/21 09:12:41;;;;;;;0.60;0.60;;;;;22.30;95582.00;;;;5092972;28;20187;-54
2023/07/21 09:15:12;;;;;;;0.60;0.60;;;;;22.40;95578.00;;;;5090999;28;20711;-54
2023/07/21 09:17:43;;;;;;;0.65;0.65;;;;;22.70;95584.00;;;;5072595;28;20199;-54
2023/07/21 09:20:11;;;;;;;0.55;0.55;;;;;22.90;95580.00;;;;5075514;28;20292;-54
2023/07/21 09:22:40;;;;;;;0.50;0.50;;;;;22.80;95577.00;;;;5078524;28;20701;-54
2023/07/21 09:25:09;;;;;;;0.75;0.75;;;;;22.90;95576.00;;;;5071392;28;20701;-56
2023/07/21 09:27:39;;;;;;;0.50;0.50;;;;;23.00;95574.00;;;;5072104;28;20195;-55
2023/07/21 09:30:08;;;;;;;0.77;0.77;;;;;22.90;95575.00;;;;5091808;28;20257;-54
2023/07/21 09:32:41;;;;;;;0.60;0.60;;;;;23.00;95574.00;;;;5067041;28;20278;-54
2023/07/21 09:35:10;;;;;;;0.50;0.50;;;;;23.10;95557.00;;;;5071453;28;20211;-54
2023/07/21 09:37:39;;;;;;;0.50;0.50;;;;;23.30;95559.00;;;;5072244;28;20199;-55
2023/07/21 09:40:10;;;;;;;0.75;0.75;;;;;23.60;95562.00;;;;5071392;28;20265;-55
2023/07/21 09:42:39;;;;;;;0.50;0.50;;;;;23.70;95559.00;;;;5070824;28;20302;-54
2023/07/21 09:45:08;;;;;;;0.55;0.55;;;;;23.70;95555.00;;;;5083994;28;20226;-55
2023/07/21 09:47:36;;;;;;;0.50;0.50;;;;;23.60;95544.00;;;;5090738;28;20207;-54
2023/07/21 09:50:04;;;;;;;0.75;0.75;;;;;23.70;95547.00;;;;5091906;28;20222;-54
2023/07/21 09:52:39;;;;;;;0.70;0.70;;;;;23.90;95541.00;;;;5083698;28;20231;-56
2023/07/21 09:55:10;;;;;;;0.80;0.80;;;;;24.10;95551.00;;;;5080330;28;20193;-55
2023/07/21 09:57:43;;;;;;;0.45;0.45;;;;;24.40;95541.00;;;;5092109;28;20260;-59
2023/07/21 10:00:14;;;;;;;0.85;0.85;;;;;24.40;95540.00;;;;5066811;28;20222;-54
2023/07/21 10:02:43;;;;;;;0.40;0.40;;;;;24.50;95536.00;;;;5070900;28;20210;-55
2023/07/21 10:05:11;;;;;;;0.80;0.70;;;;;24.60;95544.00;;;;5070832;28;20199;-55
2023/07/21 10:07:42;;;;;;;0.98;0.77;;;;;24.60;95537.00;;;;5070832;28;20705;-54
2023/07/21 10:10:11;;;;;;;0.82;0.82;;;;;24.60;95538.00;;;;5071464;28;20564;-54
2023/07/21 10:12:46;;;;;;;0.52;0.52;;;;;24.80;95533.00;;;;5070884;28;20278;-54
2023/07/21 10:15:19;;;;;;;0.90;0.90;;;;;24.80;95536.00;;;;5071174;28;20564;-54
2023/07/21 10:17:57;;;;;;;0.55;0.55;;;;;24.70;95531.00;;;;5071245;28;20202;-54
2023/07/21 10:20:41;;;;;;;0.80;0.80;;;;;24.50;95522.00;;;;5072191;28;20191;-54
2023/07/21 10:23:10;;;;;;;0.40;0.40;;;;;24.70;95520.00;;;;5068731;28;20207;-54
2023/07/21 10:25:59;;;;;;;0.50;0.50;;;;;24.70;95525.00;;;;5071229;28;20199;-56
2023/07/21 10:28:34;;;;;;;0.50;0.50;;;;;24.90;95525.00;;;;5066969;28;20234;-54
2023/07/21 10:31:30;;;;;;;1.10;1.00;;;;;25.20;95518.00;;;;5070915;28;20193;-55
2023/07/21 10:34:07;;;;;;;1.08;1.08;;;;;25.50;95518.00;;;;5047879;28;20218;-54
2023/07/21 10:36:44;;;;;;;1.08;1.00;;;;;25.60;95523.00;;;;5070201;28;20194;-55
2023/07/21 10:39:16;;;;;;;0.73;0.73;;;;;25.80;95526.00;;;;5070388;28;20246;-58
2023/07/21 10:41:44;;;;;;;0.60;0.60;;;;;25.60;95542.00;;;;5070493;28;20203;-55
2023/07/21 10:44:13;;;;;;;0.60;0.60;;;;;25.20;95556.00;;;;5071185;28;20305;-55
2023/07/21 10:46:42;;;;;;;0.75;0.75;;;;;24.80;95546.00;;;;5070349;28;20219;-56
2023/07/21 10:49:10;;;;;;;0.80;0.80;;;;;24.30;95542.00;;;;5069592;28;20229;-56
2023/07/21 10:51:39;;;;;;;0.50;0.50;;;;;24.00;95542.00;;;;5074684;28;20195;-56
2023/07/21 10:54:07;;;;;;;0.60;0.60;;;;;23.70;95553.00;;;;5091100;28;20194;-56
2023/07/21 10:56:36;;;;;;;0.68;0.68;;;;;23.60;95544.00;;;;5074556;28;20203;-56
2023/07/21 10:59:04;;;;;;;0.90;0.90;;;;;23.70;95554.00;;;;5070786;28;20227;-56
2023/07/21 11:01:36;;;;;;;0.40;0.40;;;;;23.80;95549.00;;;;5070561;28;20246;-55
2023/07/21 11:04:05;;;;;;;0.85;0.85;;;;;23.70;95556.00;;;;5068636;28;20635;-56
2023/07/21 11:06:32;;;;;;;0.90;0.90;;;;;23.60;95551.00;;;;5068900;28;20225;-56
2023/07/21 11:08:59;;;;;;;0.52;0.52;;;;;23.50;95554.00;;;;5071017;28;20245;-56
2023/07/21 11:11:27;;;;;;;0.70;0.70;;;;;23.40;95561.00;;;;5076426;28;20195;-55
2023/07/21 11:13:54;;;;;;;0.50;0.50;;;;;23.10;95562.00;;;;5091129;28;20199;-56
2023/07/21 11:16:22;;;;;;;0.60;0.60;;;;;22.70;95580.00;;;;5090467;28;20205;-56
2023/07/21 11:18:50;;;;;;;0.57;0.57;;;;;22.60;95567.00;;;;5092839;28;20598;-55
2023/07/21 11:21:18;;;;;;;4.28;0.90;;;;;22.50;95577.00;;;;5093842;28;20283;-56
2023/07/21 11:23:45;;;;;;;0.60;0.60;;;;;22.40;95573.00;;;;5094969;28;20601;-56
2023/07/21 11:26:12;;;;;;;0.60;0.60;;;;;22.40;95565.00;;;;5094686;28;20194;-56
2023/07/21 11:28:41;;;;;;;0.47;0.43;;;;;22.50;95567.00;;;;5094408;28;20257;-57
2023/07/21 11:31:13;;;;;;;0.60;0.60;;;;;22.60;95568.00;;;;5094141;28;20201;-55
2023/07/21 11:33:42;;;;;;;0.70;0.70;;;;;22.70;95572.00;;;;5095050;28;20592;-56
2023/07/21 11:36:15;;;;;;;2.58;1.45;;;;;22.70;95570.00;;;;5094151;28;20278;-55
2023/07/21 11:38:57;;;;;;;0.65;0.65;;;;;22.70;95568.00;;;;5094359;28;20276;-55
2023/07/21 11:41:48;;;;;;;1.13;0.98;;;;;22.90;95576.00;;;;5069677;28;20191;-55
2023/07/21 11:44:21;;;;;;;0.70;0.70;;;;;22.80;95577.00;;;;5072834;28;20221;-56
2023/07/21 11:46:56;;;;;;;0.70;0.70;;;;;22.80;95580.00;;;;5074075;28;20658;-55
2023/07/21 11:49:25;;;;;;;0.70;0.70;;;;;22.70;95573.00;;;;5069482;28;20268;-55
2023/07/21 11:51:55;;;;;;;1.20;0.82;;;;;22.60;95577.00;;;;5074033;28;20219;-54
2023/07/21 11:54:24;;;;;;;0.93;0.75;;;;;22.60;95579.00;;;;5073512;28;20229;-55
2023/07/21 11:56:53;;;;;;;0.80;0.80;;;;;22.60;95580.00;;;;5073094;28;20314;-55
2023/07/21 11:59:22;;;;;;;0.60;0.60;;;;;22.50;95580.00;;;;5073428;28;20230;-55
2023/07/21 12:01:50;;;;;;;0.57;0.57;;;;;22.50;95580.00;;;;5074072;28;20215;-55
2023/07/21 12:04:22;;;;;;;1.05;1.02;;;;;22.40;95583.00;;;;5073292;28;20199;-55
2023/07/21 12:06:49;;;;;;;0.60;0.60;;;;;22.40;95580.00;;;;5073327;28;20543;-55
2023/07/21 12:09:19;;;;;;;2.08;1.20;;;;;22.30;95578.00;;;;5073376;28;20218;-56
2023/07/21 12:11:47;;;;;;;0.65;0.65;;;;;22.10;95579.00;;;;5073626;28;20227;-55
2023/07/21 12:14:14;;;;;;;0.75;0.75;;;;;22.00;95585.00;;;;5073453;28;20540;-55
2023/07/21 12:16:43;;;;;;;0.60;0.60;;;;;21.90;95587.00;;;;5073775;28;20199;-57
2023/07/21 12:19:10;;;;;;;0.47;0.47;;;;;21.90;95589.00;;;;5073732;28;20627;-54
2023/07/21 12:21:38;;;;;;;0.40;0.40;;;;;21.70;95580.00;;;;5073392;28;20227;-55
2023/07/21 12:24:06;;;;;;;0.40;0.40;;;;;21.70;95589.00;;;;5073172;28;20682;-55
2023/07/21 12:26:35;;;;;;;0.65;0.65;;;;;21.80;95586.00;;;;5073670;28;20194;-55